createdAt,value
2022-10-31T00:00:01.205Z,13.8
2022-10-31T00:01:01.101Z,13.8
2022-10-31T00:02:01.164Z,13.8
2022-10-31T00:03:01.513Z,13.8
2022-10-31T00:04:01.926Z,13.8
2022-10-31T00:05:01.412Z,13.8
2022-10-31T00:06:01.987Z,13.8
2022-10-31T00:07:01.480Z,13.8
2022-10-31T00:08:01.060Z,13.8
2022-10-31T00:09:00.718Z,13.8
2022-10-31T00:10:01.061Z,13.8
2022-10-31T00:11:01.277Z,13.8
2022-10-31T00:12:01.861Z,13.8
2022-10-31T00:13:02.299Z,13.8
2022-10-31T00:14:01.178Z,13.8
2022-10-31T00:15:01.926Z,13.8
2022-10-31T00:16:01.107Z,13.8
2022-10-31T00:17:01.194Z,13.8
2022-10-31T00:18:01.569Z,13.8
2022-10-31T00:19:01.209Z,13.8
2022-10-31T00:20:01.511Z,13.7
2022-10-31T00:21:01.134Z,13.8
2022-10-31T00:22:01.130Z,13.7
2022-10-31T00:23:01.136Z,13.7
2022-10-31T00:24:01.137Z,13.7
2022-10-31T00:25:01.118Z,13.7
2022-10-31T00:26:02.006Z,13.7
2022-10-31T00:27:01.605Z,13.7
2022-10-31T00:28:01.512Z,13.7
2022-10-31T00:29:01.264Z,13.7
2022-10-31T00:30:01.949Z,13.7
2022-10-31T00:31:02.620Z,13.7
2022-10-31T00:32:00.589Z,13.7
2022-10-31T00:33:00.511Z,13.7
2022-10-31T00:34:00.479Z,13.7
2022-10-31T00:35:00.258Z,13.6
2022-10-31T00:35:59.806Z,13.7
2022-10-31T00:37:02.210Z,13.7
2022-10-31T00:38:01.834Z,13.6
2022-10-31T00:39:01.129Z,13.7
2022-10-31T00:40:01.776Z,13.7
2022-10-31T00:41:01.152Z,13.7
2022-10-31T00:42:01.142Z,13.6
2022-10-31T00:43:01.470Z,13.7
2022-10-31T00:44:02.292Z,13.6
2022-10-31T00:45:01.074Z,13.7
2022-10-31T00:46:01.548Z,13.7
2022-10-31T00:47:01.044Z,13.7
2022-10-31T00:48:01.475Z,13.7
2022-10-31T00:49:01.099Z,13.7
2022-10-31T00:50:01.107Z,13.7
2022-10-31T00:51:04.892Z,13.7
2022-10-31T00:52:01.775Z,13.7
2022-10-31T00:53:01.132Z,13.6
2022-10-31T00:54:00.916Z,13.6
2022-10-31T00:55:01.134Z,13.7
2022-10-31T00:56:06.439Z,13.6
2022-10-31T00:57:01.541Z,13.7
2022-10-31T00:58:01.583Z,13.7
2022-10-31T00:59:01.830Z,13.7
2022-10-31T01:00:00.543Z,13.7
2022-10-31T01:01:07.720Z,13.7
2022-10-31T01:02:01.247Z,13.7
2022-10-31T01:03:02.290Z,13.7
2022-10-31T01:04:01.232Z,13.8
2022-10-31T01:05:01.854Z,13.8
2022-10-31T01:06:10.539Z,13.8
2022-10-31T01:07:01.168Z,13.8
2022-10-31T01:08:01.502Z,13.8
2022-10-31T01:09:01.510Z,13.8
2022-10-31T01:10:01.611Z,13.8
2022-10-31T01:11:12.926Z,13.8
2022-10-31T01:12:01.850Z,13.8
2022-10-31T01:13:01.498Z,13.8
2022-10-31T01:14:01.049Z,13.8
2022-10-31T01:15:01.074Z,13.8
2022-10-31T01:16:16.826Z,13.8
2022-10-31T01:17:01.460Z,13.8
2022-10-31T01:18:02.443Z,13.7
2022-10-31T01:19:01.487Z,13.8
2022-10-31T01:20:01.223Z,13.8
2022-10-31T01:21:02.067Z,13.8
2022-10-31T01:22:01.103Z,13.8
2022-10-31T01:23:01.115Z,13.8
2022-10-31T01:24:01.144Z,13.8
2022-10-31T01:25:01.544Z,13.8
2022-10-31T01:26:01.130Z,13.8
2022-10-31T01:27:01.147Z,13.9
2022-10-31T01:28:02.008Z,13.9
2022-10-31T01:29:02.267Z,13.9
2022-10-31T01:30:01.303Z,13.9
2022-10-31T01:31:01.968Z,14
2022-10-31T01:32:01.066Z,14
2022-10-31T01:33:01.776Z,14
2022-10-31T01:34:01.459Z,14
2022-10-31T01:35:01.085Z,14
2022-10-31T01:36:01.804Z,14
2022-10-31T01:37:01.390Z,14
2022-10-31T01:38:01.194Z,14
2022-10-31T01:39:01.109Z,14
2022-10-31T01:40:00.971Z,14
2022-10-31T01:41:00.601Z,14
2022-10-31T01:42:00.242Z,14
2022-10-31T01:43:00.028Z,14
2022-10-31T01:44:00.010Z,14
2022-10-31T01:44:59.705Z,14
2022-10-31T01:46:01.336Z,14
2022-10-31T01:47:01.159Z,14
2022-10-31T01:48:01.604Z,14
2022-10-31T01:49:01.476Z,14
2022-10-31T01:50:02.707Z,14
2022-10-31T01:51:01.086Z,14
2022-10-31T01:52:01.744Z,14
2022-10-31T01:53:01.086Z,14
2022-10-31T01:54:01.101Z,14
2022-10-31T01:55:01.135Z,14
2022-10-31T01:56:01.115Z,14
2022-10-31T01:57:01.358Z,14
2022-10-31T01:58:02.658Z,14
2022-10-31T01:59:04.322Z,14
2022-10-31T02:00:01.045Z,14
2022-10-31T02:01:04.859Z,14
2022-10-31T02:02:01.322Z,14
2022-10-31T02:03:01.471Z,14
2022-10-31T02:04:02.599Z,14
2022-10-31T02:05:01.445Z,14
2022-10-31T02:06:03.773Z,14
2022-10-31T02:07:02.021Z,14
2022-10-31T02:08:01.926Z,14
2022-10-31T02:09:01.087Z,14
2022-10-31T02:10:01.231Z,14
2022-10-31T02:11:01.384Z,14
2022-10-31T02:12:01.132Z,14
2022-10-31T02:13:02.242Z,14
2022-10-31T02:14:01.165Z,14
2022-10-31T02:15:01.134Z,14
2022-10-31T02:16:01.151Z,14
2022-10-31T02:17:01.550Z,14
2022-10-31T02:18:02.430Z,14
2022-10-31T02:19:01.852Z,14
2022-10-31T02:20:01.335Z,14
2022-10-31T02:21:01.064Z,14
2022-10-31T02:22:00.661Z,14
2022-10-31T02:23:00.372Z,14
2022-10-31T02:23:59.982Z,14
2022-10-31T02:24:59.717Z,14
2022-10-31T02:26:01.502Z,14
2022-10-31T02:27:02.639Z,14
2022-10-31T02:28:01.712Z,14
2022-10-31T02:29:01.199Z,14
2022-10-31T02:30:01.125Z,14
2022-10-31T02:31:01.132Z,14
2022-10-31T02:32:03.846Z,14
2022-10-31T02:33:01.478Z,14
2022-10-31T02:34:01.724Z,14
2022-10-31T02:35:01.732Z,14
2022-10-31T02:36:02.437Z,14
2022-10-31T02:37:06.627Z,14
2022-10-31T02:38:01.075Z,14
2022-10-31T02:39:01.182Z,14
2022-10-31T02:40:01.190Z,14
2022-10-31T02:41:01.055Z,14
2022-10-31T02:42:09.335Z,14
2022-10-31T02:43:01.351Z,14
2022-10-31T02:44:00.912Z,14
2022-10-31T02:45:01.044Z,14
2022-10-31T02:46:01.127Z,14
2022-10-31T02:47:11.173Z,14
2022-10-31T02:48:01.919Z,14
2022-10-31T02:49:02.161Z,14
2022-10-31T02:50:02.259Z,14
2022-10-31T02:51:01.059Z,14
2022-10-31T02:52:14.031Z,14
2022-10-31T02:53:01.070Z,14
2022-10-31T02:54:01.075Z,14
2022-10-31T02:55:01.080Z,14
2022-10-31T02:56:01.087Z,14
2022-10-31T02:57:16.980Z,14
2022-10-31T02:58:02.916Z,14
2022-10-31T02:59:01.123Z,14
2022-10-31T03:00:01.960Z,14
2022-10-31T03:01:01.222Z,14
2022-10-31T03:02:02.033Z,14
2022-10-31T03:03:01.580Z,14
2022-10-31T03:04:01.863Z,14
2022-10-31T03:05:01.143Z,14
2022-10-31T03:06:01.440Z,14
2022-10-31T03:07:01.480Z,14
2022-10-31T03:08:01.112Z,14
2022-10-31T03:09:03.776Z,14
2022-10-31T03:10:01.091Z,13.9
2022-10-31T03:11:01.095Z,13.9
2022-10-31T03:12:01.283Z,13.9
2022-10-31T03:13:02.008Z,13.9
2022-10-31T03:14:02.190Z,14
2022-10-31T03:15:02.043Z,14
2022-10-31T03:16:01.112Z,13.9
2022-10-31T03:17:01.139Z,13.9
2022-10-31T03:18:01.583Z,13.9
2022-10-31T03:19:01.130Z,13.9
2022-10-31T03:20:01.147Z,13.9
2022-10-31T03:21:01.062Z,13.9
2022-10-31T03:22:01.077Z,13.9
2022-10-31T03:23:02.082Z,13.9
2022-10-31T03:24:01.206Z,13.9
2022-10-31T03:25:02.228Z,14
2022-10-31T03:26:01.943Z,13.9
2022-10-31T03:27:00.577Z,13.9
2022-10-31T03:28:00.721Z,13.9
2022-10-31T03:29:01.295Z,13.9
2022-10-31T03:30:01.047Z,13.9
2022-10-31T03:31:03.437Z,13.9
2022-10-31T03:32:01.503Z,13.9
2022-10-31T03:33:01.396Z,13.9
2022-10-31T03:34:01.149Z,13.9
2022-10-31T03:35:00.725Z,13.9
2022-10-31T03:36:00.326Z,13.9
2022-10-31T03:36:59.909Z,13.9
2022-10-31T03:38:00.911Z,13.9
2022-10-31T03:39:01.060Z,13.9
2022-10-31T03:40:01.390Z,13.9
2022-10-31T03:41:01.398Z,13.9
2022-10-31T03:42:02.089Z,13.9
2022-10-31T03:43:02.542Z,13.9
2022-10-31T03:44:01.180Z,13.9
2022-10-31T03:45:02.450Z,13.9
2022-10-31T03:46:01.123Z,13.9
2022-10-31T03:47:01.191Z,13.9
2022-10-31T03:48:01.898Z,13.9
2022-10-31T03:49:01.039Z,13.9
2022-10-31T03:50:01.056Z,13.9
2022-10-31T03:51:01.155Z,13.9
2022-10-31T03:52:01.147Z,13.9
2022-10-31T03:53:01.234Z,13.9
2022-10-31T03:54:01.256Z,13.9
2022-10-31T03:55:01.090Z,13.9
2022-10-31T03:56:00.879Z,13.9
2022-10-31T03:57:01.080Z,13.9
2022-10-31T03:58:01.532Z,13.8
2022-10-31T03:59:01.196Z,13.9
2022-10-31T04:00:01.097Z,13.8
2022-10-31T04:01:01.416Z,13.8
2022-10-31T04:02:01.715Z,13.8
2022-10-31T04:03:01.677Z,13.8
2022-10-31T04:04:02.198Z,13.8
2022-10-31T04:05:01.258Z,13.8
2022-10-31T04:06:01.866Z,13.8
2022-10-31T04:07:01.299Z,13.8
2022-10-31T04:08:01.662Z,13.8
2022-10-31T04:09:02.707Z,13.8
2022-10-31T04:10:01.089Z,13.8
2022-10-31T04:11:01.074Z,13.8
2022-10-31T04:12:03.837Z,13.8
2022-10-31T04:13:03.770Z,13.8
2022-10-31T04:14:01.113Z,13.8
2022-10-31T04:15:01.126Z,13.8
2022-10-31T04:16:01.063Z,13.8
2022-10-31T04:17:01.311Z,13.8
2022-10-31T04:18:07.469Z,13.8
2022-10-31T04:19:01.330Z,13.8
2022-10-31T04:20:02.036Z,13.8
2022-10-31T04:21:02.039Z,13.8
2022-10-31T04:22:01.433Z,13.8
2022-10-31T04:23:14.672Z,13.8
2022-10-31T04:24:02.177Z,13.8
2022-10-31T04:25:01.553Z,13.8
2022-10-31T04:26:01.318Z,13.8
2022-10-31T04:27:01.939Z,13.8
2022-10-31T04:28:14.069Z,13.8
2022-10-31T04:29:01.052Z,13.7
2022-10-31T04:30:01.069Z,13.7
2022-10-31T04:31:01.115Z,13.7
2022-10-31T04:32:01.045Z,13.7
2022-10-31T04:33:16.268Z,13.7
2022-10-31T04:34:01.319Z,13.7
2022-10-31T04:35:01.323Z,13.7
2022-10-31T04:36:01.944Z,13.7
2022-10-31T04:37:00.838Z,13.7
2022-10-31T04:38:02.711Z,13.7
2022-10-31T04:39:01.956Z,13.7
2022-10-31T04:40:01.460Z,13.7
2022-10-31T04:41:01.173Z,13.7
2022-10-31T04:42:01.369Z,13.7
2022-10-31T04:43:02.374Z,13.7
2022-10-31T04:44:01.096Z,13.7
2022-10-31T04:45:01.107Z,13.7
2022-10-31T04:46:01.112Z,13.6
2022-10-31T04:47:03.975Z,13.6
2022-10-31T04:48:01.445Z,13.6
2022-10-31T04:49:01.118Z,13.6
2022-10-31T04:50:01.130Z,13.6
2022-10-31T04:51:01.144Z,13.6
2022-10-31T04:52:01.531Z,13.6
2022-10-31T04:53:01.254Z,13.6
2022-10-31T04:54:01.141Z,13.6
2022-10-31T04:55:01.861Z,13.6
2022-10-31T04:56:01.082Z,13.6
2022-10-31T04:57:01.174Z,13.6
2022-10-31T04:58:01.407Z,13.6
2022-10-31T04:59:01.448Z,13.6
2022-10-31T05:00:01.095Z,13.6
2022-10-31T05:01:01.879Z,13.5
2022-10-31T05:02:01.461Z,13.5
2022-10-31T05:03:01.548Z,13.5
2022-10-31T05:04:01.128Z,13.5
2022-10-31T05:05:01.784Z,13.5
2022-10-31T05:06:01.429Z,13.5
2022-10-31T05:07:01.195Z,13.5
2022-10-31T05:08:01.126Z,13.5
2022-10-31T05:09:01.136Z,13.5
2022-10-31T05:10:01.318Z,13.5
2022-10-31T05:11:04.191Z,13.5
2022-10-31T05:12:01.283Z,13.5
2022-10-31T05:13:02.856Z,13.5
2022-10-31T05:14:01.084Z,13.5
2022-10-31T05:15:01.097Z,13.5
2022-10-31T05:16:02.667Z,13.5
2022-10-31T05:17:01.086Z,13.5
2022-10-31T05:18:01.422Z,13.5
2022-10-31T05:19:01.424Z,13.4
2022-10-31T05:20:02.057Z,13.4
2022-10-31T05:21:02.463Z,13.4
2022-10-31T05:22:01.572Z,13.4
2022-10-31T05:23:01.943Z,13.4
2022-10-31T05:24:01.649Z,13.4
2022-10-31T05:25:01.240Z,13.4
2022-10-31T05:26:01.175Z,13.3
2022-10-31T05:27:01.161Z,13.3
2022-10-31T05:28:02.574Z,13.3
2022-10-31T05:29:01.250Z,13.3
2022-10-31T05:30:01.273Z,13.3
2022-10-31T05:31:02.117Z,13.3
2022-10-31T05:32:01.160Z,13.3
2022-10-31T05:33:01.506Z,13.3
2022-10-31T05:34:01.276Z,13.3
2022-10-31T05:35:01.062Z,13.3
2022-10-31T05:36:01.175Z,13.3
2022-10-31T05:37:01.655Z,13.3
2022-10-31T05:38:01.795Z,13.3
2022-10-31T05:39:01.652Z,13.3
2022-10-31T05:40:07.036Z,13.3
2022-10-31T05:41:01.332Z,13.2
2022-10-31T05:42:02.056Z,13.2
2022-10-31T05:43:02.351Z,13.2
2022-10-31T05:44:01.307Z,13.2
2022-10-31T05:45:02.734Z,13.2
2022-10-31T05:46:01.170Z,13.2
2022-10-31T05:47:01.458Z,13.2
2022-10-31T05:48:01.408Z,13.2
2022-10-31T05:49:03.409Z,13.1
2022-10-31T05:50:01.131Z,13.1
2022-10-31T05:51:01.106Z,13.2
2022-10-31T05:52:01.067Z,13.1
2022-10-31T05:53:01.212Z,13.1
2022-10-31T05:54:05.303Z,13.1
2022-10-31T05:55:01.778Z,13.1
2022-10-31T05:56:02.050Z,13.1
2022-10-31T05:57:02.184Z,13.1
2022-10-31T05:58:01.507Z,13.1
2022-10-31T05:59:09.225Z,13.1
2022-10-31T06:00:01.411Z,13.1
2022-10-31T06:01:01.061Z,13.1
2022-10-31T06:02:01.069Z,13.1
2022-10-31T06:03:01.199Z,13.2
2022-10-31T06:04:10.771Z,13.1
2022-10-31T06:05:01.934Z,13.1
2022-10-31T06:06:01.307Z,13.1
2022-10-31T06:07:01.102Z,13.1
2022-10-31T06:08:01.559Z,13.1
2022-10-31T06:09:15.009Z,13.1
2022-10-31T06:10:02.512Z,13.1
2022-10-31T06:11:01.158Z,13.1
2022-10-31T06:12:01.135Z,13.1
2022-10-31T06:13:01.142Z,13.1
2022-10-31T06:14:16.519Z,13.2
2022-10-31T06:15:02.228Z,13.1
2022-10-31T06:16:01.178Z,13.2
2022-10-31T06:17:01.179Z,13.1
2022-10-31T06:18:01.776Z,13.1
2022-10-31T06:19:01.078Z,13.2
2022-10-31T06:20:01.081Z,13.2
2022-10-31T06:21:01.228Z,13.2
2022-10-31T06:22:01.905Z,13.2
2022-10-31T06:23:02.471Z,13.2
2022-10-31T06:24:01.515Z,13.2
2022-10-31T06:25:01.177Z,13.2
2022-10-31T06:26:01.604Z,13.2
2022-10-31T06:27:01.313Z,13.2
2022-10-31T06:28:01.120Z,13.3
2022-10-31T06:29:03.980Z,13.3
2022-10-31T06:30:01.405Z,13.3
2022-10-31T06:31:02.604Z,13.3
2022-10-31T06:32:01.549Z,13.3
2022-10-31T06:33:01.595Z,13.3
2022-10-31T06:34:04.129Z,13.3
2022-10-31T06:35:03.010Z,13.3
2022-10-31T06:36:01.149Z,13.3
2022-10-31T06:37:01.216Z,13.3
2022-10-31T06:38:02.253Z,13.3
2022-10-31T06:39:01.863Z,13.3
2022-10-31T06:40:01.079Z,13.3
2022-10-31T06:41:01.236Z,13.3
2022-10-31T06:42:01.108Z,13.3
2022-10-31T06:43:00.884Z,13.3
2022-10-31T06:44:05.031Z,13.3
2022-10-31T06:45:01.001Z,13.3
2022-10-31T06:46:01.557Z,13.3
2022-10-31T06:47:01.387Z,13.3
2022-10-31T06:48:16.541Z,13.3
2022-10-31T06:49:01.086Z,13.3
2022-10-31T06:50:01.204Z,13.3
2022-10-31T06:51:01.094Z,13.4
2022-10-31T06:52:01.144Z,13.4
2022-10-31T06:53:01.202Z,13.4
2022-10-31T06:54:00.989Z,13.5
2022-10-31T06:55:00.619Z,13.5
2022-10-31T06:56:00.744Z,13.5
2022-10-31T06:57:00.769Z,13.5
2022-10-31T06:58:02.993Z,13.5
2022-10-31T06:59:01.514Z,13.5
2022-10-31T07:00:01.070Z,13.5
2022-10-31T07:01:01.930Z,13.5
2022-10-31T07:02:02.308Z,13.5
2022-10-31T07:03:01.460Z,13.5
2022-10-31T07:04:02.038Z,13.5
2022-10-31T07:05:01.454Z,13.5
2022-10-31T07:06:01.699Z,13.6
2022-10-31T07:07:01.682Z,13.5
2022-10-31T07:08:02.281Z,13.6
2022-10-31T07:09:01.760Z,13.6
2022-10-31T07:10:01.225Z,13.6
2022-10-31T07:11:02.001Z,13.6
2022-10-31T07:12:02.065Z,13.6
2022-10-31T07:13:01.504Z,13.6
2022-10-31T07:14:01.890Z,13.6
2022-10-31T07:15:02.480Z,13.6
2022-10-31T07:16:01.457Z,13.7
2022-10-31T07:17:02.355Z,13.7
2022-10-31T07:18:00.964Z,13.7
2022-10-31T07:19:01.846Z,13.8
2022-10-31T07:20:00.875Z,13.7
2022-10-31T07:21:01.072Z,13.8
2022-10-31T07:22:01.260Z,13.8
2022-10-31T07:23:01.207Z,13.8
2022-10-31T07:24:01.303Z,13.8
2022-10-31T07:25:02.004Z,13.8
2022-10-31T07:26:00.576Z,13.8
2022-10-31T07:28:00.346Z,13.8
2022-10-31T07:29:00.338Z,13.8
2022-10-31T07:29:59.990Z,13.8
2022-10-31T07:30:59.686Z,13.8
2022-10-31T07:32:01.319Z,13.8
2022-10-31T07:33:01.131Z,13.8
2022-10-31T07:34:01.178Z,13.9
2022-10-31T07:35:00.746Z,13.9
2022-10-31T07:36:00.436Z,13.9
2022-10-31T07:37:00.023Z,13.9
2022-10-31T07:37:59.937Z,13.9
2022-10-31T07:38:59.725Z,13.9
2022-10-31T07:40:03.311Z,13.9
2022-10-31T07:41:01.776Z,14
2022-10-31T07:42:01.092Z,14
2022-10-31T07:43:00.788Z,14
2022-10-31T07:44:00.411Z,14
2022-10-31T07:45:04.787Z,14
2022-10-31T07:46:01.133Z,14
2022-10-31T07:47:01.457Z,14
2022-10-31T07:48:01.773Z,14
2022-10-31T07:49:01.737Z,14
2022-10-31T07:50:07.865Z,14
2022-10-31T07:51:01.425Z,14.1
2022-10-31T07:52:02.659Z,14.1
2022-10-31T07:53:01.190Z,14.1
2022-10-31T07:54:02.311Z,14.1
2022-10-31T07:55:09.722Z,14.1
2022-10-31T07:56:01.027Z,14.1
2022-10-31T07:57:01.121Z,14.2
2022-10-31T07:58:02.454Z,14.2
2022-10-31T07:59:01.308Z,14.2
2022-10-31T08:00:11.494Z,14.2
2022-10-31T08:01:02.269Z,14.3
2022-10-31T08:02:02.138Z,14.3
2022-10-31T08:03:01.950Z,14.3
2022-10-31T08:04:01.143Z,14.3
2022-10-31T08:05:12.051Z,14.3
2022-10-31T08:06:00.615Z,14.3
2022-10-31T08:07:00.320Z,14.3
2022-10-31T08:08:00.430Z,14.4
2022-10-31T08:09:00.323Z,14.4
2022-10-31T08:10:14.792Z,14.4
2022-10-31T08:11:01.257Z,14.4
2022-10-31T08:12:01.235Z,14.4
2022-10-31T08:13:01.222Z,14.5
2022-10-31T08:14:01.110Z,14.5
2022-10-31T08:15:01.275Z,14.5
2022-10-31T08:16:01.106Z,14.5
2022-10-31T08:17:01.118Z,14.5
2022-10-31T08:18:01.513Z,14.5
2022-10-31T08:19:01.118Z,14.5
2022-10-31T08:20:01.132Z,14.6
2022-10-31T08:21:01.517Z,14.6
2022-10-31T08:22:01.148Z,14.6
2022-10-31T08:23:00.879Z,14.6
2022-10-31T08:24:01.175Z,14.6
2022-10-31T08:25:01.160Z,14.6
2022-10-31T08:26:01.340Z,14.6
2022-10-31T08:27:01.363Z,14.6
2022-10-31T08:28:01.794Z,14.6
2022-10-31T08:29:02.020Z,14.6
2022-10-31T08:30:01.228Z,14.7
2022-10-31T08:31:01.243Z,14.7
2022-10-31T08:32:01.111Z,14.7
2022-10-31T08:33:01.167Z,14.8
2022-10-31T08:34:01.141Z,14.8
2022-10-31T08:35:01.839Z,14.8
2022-10-31T08:36:01.215Z,14.8
2022-10-31T08:37:01.192Z,14.8
2022-10-31T08:38:04.429Z,14.8
2022-10-31T08:39:02.260Z,14.8
2022-10-31T08:40:01.733Z,14.9
2022-10-31T08:41:01.367Z,14.9
2022-10-31T08:42:01.060Z,14.9
2022-10-31T08:43:01.102Z,15
2022-10-31T08:44:01.112Z,15
2022-10-31T08:45:01.059Z,15
2022-10-31T08:46:01.471Z,15
2022-10-31T08:47:01.205Z,15
2022-10-31T08:48:01.636Z,15.1
2022-10-31T08:49:01.133Z,15.1
2022-10-31T08:50:01.126Z,15.1
2022-10-31T08:51:01.123Z,15.1
2022-10-31T08:52:01.133Z,15.1
2022-10-31T08:53:05.343Z,15.1
2022-10-31T08:54:01.660Z,15.2
2022-10-31T08:55:01.465Z,15.2
2022-10-31T08:56:01.488Z,15.2
2022-10-31T08:57:01.701Z,15.3
2022-10-31T08:58:02.487Z,15.3
2022-10-31T08:59:02.703Z,15.3
2022-10-31T09:00:01.837Z,15.3
2022-10-31T09:01:02.751Z,15.3
2022-10-31T09:02:01.267Z,15.3
2022-10-31T09:03:01.132Z,15.4
2022-10-31T09:04:00.952Z,15.4
2022-10-31T09:05:01.511Z,15.4
2022-10-31T09:06:02.326Z,15.3
2022-10-31T09:07:20.313Z,15.4
2022-10-31T09:08:01.892Z,15.4
2022-10-31T09:09:01.054Z,15.4
2022-10-31T09:10:01.181Z,15.5
2022-10-31T09:11:01.159Z,15.5
2022-10-31T09:12:01.072Z,15.5
2022-10-31T09:13:01.062Z,15.5
2022-10-31T09:14:01.459Z,15.5
2022-10-31T09:15:01.082Z,15.5
2022-10-31T09:16:01.075Z,15.5
2022-10-31T09:17:01.086Z,15.6
2022-10-31T09:18:01.424Z,15.6
2022-10-31T09:19:01.107Z,15.6
2022-10-31T09:20:01.129Z,15.6
2022-10-31T09:21:01.591Z,15.6
2022-10-31T09:22:01.218Z,15.6
2022-10-31T09:23:00.912Z,15.6
2022-10-31T09:24:01.134Z,15.7
2022-10-31T09:25:01.128Z,15.7
2022-10-31T09:26:01.177Z,15.7
2022-10-31T09:27:01.166Z,15.7
2022-10-31T09:28:01.498Z,15.8
2022-10-31T09:29:01.447Z,15.8
2022-10-31T09:30:01.451Z,15.8
2022-10-31T09:31:01.999Z,15.8
2022-10-31T09:32:02.278Z,15.8
2022-10-31T09:33:01.087Z,15.8
2022-10-31T09:34:01.148Z,15.8
2022-10-31T09:35:01.249Z,15.8
2022-10-31T09:36:04.977Z,15.8
2022-10-31T09:37:01.535Z,15.8
2022-10-31T09:38:02.235Z,15.8
2022-10-31T09:39:02.173Z,15.8
2022-10-31T09:40:04.517Z,15.8
2022-10-31T09:41:07.689Z,15.9
2022-10-31T09:42:01.154Z,15.9
2022-10-31T09:43:01.327Z,15.9
2022-10-31T09:44:01.109Z,15.9
2022-10-31T09:45:01.071Z,16
2022-10-31T09:46:10.716Z,16
2022-10-31T09:47:01.367Z,16
2022-10-31T09:48:02.121Z,16
2022-10-31T09:49:01.208Z,16
2022-10-31T09:50:01.115Z,16
2022-10-31T09:51:13.599Z,16.1
2022-10-31T09:52:01.854Z,16.1
2022-10-31T09:53:01.541Z,16.1
2022-10-31T09:54:01.428Z,16.1
2022-10-31T09:55:02.596Z,16.1
2022-10-31T09:56:16.069Z,16.1
2022-10-31T09:57:01.217Z,16.2
2022-10-31T09:58:01.315Z,16.2
2022-10-31T09:59:01.154Z,16.2
2022-10-31T10:00:01.079Z,16.3
2022-10-31T10:01:01.195Z,16.3
2022-10-31T10:02:01.246Z,16.3
2022-10-31T10:03:02.251Z,16.3
2022-10-31T10:04:01.344Z,16.3
2022-10-31T10:05:01.393Z,16.3
2022-10-31T10:06:01.345Z,16.4
2022-10-31T10:07:01.118Z,16.4
2022-10-31T10:08:01.129Z,16.4
2022-10-31T10:09:01.118Z,16.5
2022-10-31T10:10:01.132Z,16.5
2022-10-31T10:11:01.139Z,16.5
2022-10-31T10:12:01.502Z,16.5
2022-10-31T10:13:03.467Z,16.5
2022-10-31T10:14:01.977Z,16.6
2022-10-31T10:15:02.134Z,16.6
2022-10-31T10:16:01.297Z,16.6
2022-10-31T10:17:01.071Z,16.6
2022-10-31T10:18:01.060Z,16.6
2022-10-31T10:19:01.078Z,16.7
2022-10-31T10:20:01.105Z,16.7
2022-10-31T10:21:01.101Z,16.7
2022-10-31T10:22:01.114Z,16.8
2022-10-31T10:23:01.458Z,16.8
2022-10-31T10:24:01.248Z,16.8
2022-10-31T10:25:02.017Z,16.8
2022-10-31T10:26:01.774Z,16.8
2022-10-31T10:27:01.518Z,16.8
2022-10-31T10:28:02.038Z,16.9
2022-10-31T10:29:02.950Z,16.9
2022-10-31T10:30:01.121Z,16.9
2022-10-31T10:31:01.073Z,17
2022-10-31T10:32:01.749Z,17
2022-10-31T10:33:01.887Z,17
2022-10-31T10:34:01.913Z,17
2022-10-31T10:35:01.204Z,17
2022-10-31T10:36:01.393Z,17
2022-10-31T10:37:00.952Z,17
2022-10-31T10:38:01.514Z,17
2022-10-31T10:39:01.122Z,17.1
2022-10-31T10:40:01.127Z,17.1
2022-10-31T10:41:01.797Z,17.1
2022-10-31T10:42:01.393Z,17.1
2022-10-31T10:43:02.146Z,17.1
2022-10-31T10:44:01.748Z,17.1
2022-10-31T10:45:01.154Z,17.1
2022-10-31T10:46:01.157Z,17.2
2022-10-31T10:47:01.153Z,17.2
2022-10-31T10:48:01.355Z,17.2
2022-10-31T10:49:01.099Z,17.2
2022-10-31T10:50:01.078Z,17.3
2022-10-31T10:51:01.071Z,17.3
2022-10-31T10:52:19.517Z,17.3
2022-10-31T10:53:01.221Z,17.3
2022-10-31T10:54:04.205Z,17.3
2022-10-31T10:55:01.482Z,17.3
2022-10-31T10:56:00.489Z,17.3
2022-10-31T10:57:00.185Z,17.3
2022-10-31T10:58:00.421Z,17.4
2022-10-31T10:59:00.323Z,17.4
2022-10-31T11:00:00.007Z,17.5
2022-10-31T11:01:00.018Z,17.5
2022-10-31T11:02:00.113Z,17.5
2022-10-31T11:03:00.058Z,17.5
2022-10-31T11:03:59.825Z,17.5
2022-10-31T11:05:01.864Z,17.5
2022-10-31T11:06:01.059Z,17.6
2022-10-31T11:07:01.066Z,17.6
2022-10-31T11:08:01.046Z,17.6
2022-10-31T11:09:01.087Z,17.6
2022-10-31T11:10:01.111Z,17.6
2022-10-31T11:11:01.121Z,17.7
2022-10-31T11:12:01.599Z,17.7
2022-10-31T11:13:02.265Z,17.7
2022-10-31T11:14:02.033Z,17.8
2022-10-31T11:15:01.330Z,17.8
2022-10-31T11:16:01.053Z,17.8
2022-10-31T11:17:01.140Z,17.8
2022-10-31T11:18:01.144Z,17.8
2022-10-31T11:19:01.052Z,17.8
2022-10-31T11:20:01.088Z,17.8
2022-10-31T11:21:01.072Z,17.8
2022-10-31T11:22:01.893Z,17.8
2022-10-31T11:23:01.073Z,17.8
2022-10-31T11:24:01.094Z,17.8
2022-10-31T11:25:01.906Z,17.8
2022-10-31T11:26:01.392Z,17.8
2022-10-31T11:27:05.572Z,17.8
2022-10-31T11:28:01.214Z,17.8
2022-10-31T11:29:01.194Z,17.8
2022-10-31T11:30:01.548Z,17.8
2022-10-31T11:31:01.140Z,17.8
2022-10-31T11:32:08.163Z,17.8
2022-10-31T11:33:01.610Z,17.9
2022-10-31T11:34:01.304Z,17.9
2022-10-31T11:35:02.614Z,18
2022-10-31T11:36:01.065Z,18
2022-10-31T11:37:11.450Z,18
2022-10-31T11:38:02.540Z,18
2022-10-31T11:39:02.194Z,18
2022-10-31T11:40:01.088Z,18
2022-10-31T11:41:01.115Z,18
2022-10-31T11:42:13.922Z,18
2022-10-31T11:43:01.112Z,18
2022-10-31T11:44:01.139Z,18
2022-10-31T11:45:02.931Z,18.1
2022-10-31T11:46:01.040Z,18.1
2022-10-31T11:47:15.355Z,18.1
2022-10-31T11:48:01.931Z,18.1
2022-10-31T11:49:02.161Z,18.1
2022-10-31T11:50:01.433Z,18.1
2022-10-31T11:51:01.816Z,18.1
2022-10-31T11:52:01.069Z,18.2
2022-10-31T11:53:01.144Z,18.2
2022-10-31T11:54:03.015Z,18.3
2022-10-31T11:55:01.505Z,18.3
2022-10-31T11:56:01.190Z,18.3
2022-10-31T11:57:07.231Z,18.3
2022-10-31T11:58:01.537Z,18.3
2022-10-31T11:59:01.129Z,18.3
2022-10-31T12:00:01.129Z,18.3
2022-10-31T12:01:01.135Z,18.3
2022-10-31T12:02:02.022Z,18.3
2022-10-31T12:03:01.955Z,18.3
2022-10-31T12:04:01.165Z,18.3
2022-10-31T12:05:01.408Z,18.3
2022-10-31T12:06:01.415Z,18.3
2022-10-31T12:07:01.409Z,18.4
2022-10-31T12:08:04.503Z,18.4
2022-10-31T12:09:01.067Z,18.4
2022-10-31T12:10:01.094Z,18.4
2022-10-31T12:11:01.092Z,18.4
2022-10-31T12:12:01.104Z,18.4
2022-10-31T12:13:02.546Z,18.4
2022-10-31T12:14:03.882Z,18.4
2022-10-31T12:15:01.513Z,18.3
2022-10-31T12:16:01.111Z,18.3
2022-10-31T12:17:01.217Z,18.3
2022-10-31T12:18:01.100Z,18.3
2022-10-31T12:19:01.066Z,18.3
2022-10-31T12:20:01.169Z,18.3
2022-10-31T12:21:01.143Z,18.3
2022-10-31T12:22:01.151Z,18.3
2022-10-31T12:23:01.811Z,18.3
2022-10-31T12:24:01.183Z,18.4
2022-10-31T12:25:02.278Z,18.4
2022-10-31T12:26:01.074Z,18.4
2022-10-31T12:27:01.091Z,18.5
2022-10-31T12:28:01.098Z,18.5
2022-10-31T12:29:01.120Z,18.5
2022-10-31T12:30:01.107Z,18.5
2022-10-31T12:31:01.803Z,18.5
2022-10-31T12:32:01.115Z,18.5
2022-10-31T12:33:01.904Z,18.5
2022-10-31T12:34:01.838Z,18.5
2022-10-31T12:35:01.270Z,18.5
2022-10-31T12:36:00.930Z,18.5
2022-10-31T12:37:01.157Z,18.5
2022-10-31T12:38:01.752Z,18.5
2022-10-31T12:39:01.266Z,18.5
2022-10-31T12:40:01.162Z,18.6
2022-10-31T12:41:02.850Z,18.6
2022-10-31T12:42:01.172Z,18.6
2022-10-31T12:43:02.288Z,18.6
2022-10-31T12:44:01.084Z,18.6
2022-10-31T12:45:01.108Z,18.6
2022-10-31T12:46:01.057Z,18.6
2022-10-31T12:47:01.101Z,18.6
2022-10-31T12:48:01.208Z,18.6
2022-10-31T12:49:01.138Z,18.6
2022-10-31T12:50:01.245Z,18.6
2022-10-31T12:51:00.826Z,18.6
2022-10-31T12:52:01.201Z,18.6
2022-10-31T12:53:01.609Z,18.6
2022-10-31T12:54:01.694Z,18.6
2022-10-31T12:55:01.441Z,18.6
2022-10-31T12:56:01.686Z,18.6
2022-10-31T12:57:01.077Z,18.6
2022-10-31T12:58:01.375Z,18.6
2022-10-31T12:59:01.352Z,18.6
2022-10-31T13:00:02.020Z,18.7
2022-10-31T13:01:01.123Z,18.7
2022-10-31T13:02:02.243Z,18.7
2022-10-31T13:03:01.940Z,18.8
2022-10-31T13:04:02.291Z,18.7
2022-10-31T13:05:01.076Z,18.7
2022-10-31T13:06:01.126Z,18.7
2022-10-31T13:07:01.731Z,18.7
2022-10-31T13:08:01.294Z,18.7
2022-10-31T13:09:02.171Z,18.7
2022-10-31T13:10:01.595Z,18.6
2022-10-31T13:12:00.564Z,18.6
2022-10-31T13:13:04.069Z,18.6
2022-10-31T13:14:01.383Z,18.7
2022-10-31T13:15:01.114Z,18.7
2022-10-31T13:16:00.780Z,18.8
2022-10-31T13:17:00.371Z,18.8
2022-10-31T13:18:05.119Z,18.8
2022-10-31T13:19:02.125Z,18.8
2022-10-31T13:20:01.175Z,18.8
2022-10-31T13:21:01.119Z,18.8
2022-10-31T13:22:01.147Z,18.8
2022-10-31T13:23:23.501Z,18.8
2022-10-31T13:24:01.137Z,18.8
2022-10-31T13:25:01.139Z,18.8
2022-10-31T13:26:01.316Z,18.8
2022-10-31T13:27:01.563Z,18.8
2022-10-31T13:28:10.511Z,18.8
2022-10-31T13:29:01.319Z,18.8